Home > Products > Valid Products > TAF

000
FTUS46 KHNX 191100
TAFFAT
TAF
KFAT 191128Z 1912/2012 32004KT P6SM BKN200
     FM191900 31008KT P6SM SCT200
     FM192200 31012G18KT P6SM SKC
     FM200300 31007KT P6SM SKC=



000
FTUS46 KHNX 191100
TAFMCE
TAF
KMCE 191128Z 1912/2012 31004KT P6SM BKN200
     FM191700 32008KT P6SM SCT200
     FM192200 33013G20KT P6SM SKC
     FM200200 33006KT P6SM SKC=



000
FTUS46 KHNX 191100
TAFBFL
TAF
KBFL 191128Z 1912/2012 VRB03KT P6SM BKN200
     FM192100 31010G15KT P6SM SKC
     FM200200 35005KT P6SM SKC=



000
FTUS46 KHNX 190500
TAFMCE
TAF
KMCE 190536Z 1906/2006 31006KT P6SM SCT200
     FM192300 33013G20KT P6SM SKC=



000
FTUS46 KHNX 190500
TAFFAT
TAF
KFAT 190536Z 1906/2006 31006KT P6SM SCT200
     FM192300 31013G20KT P6SM SCT250=



000
FTUS46 KHNX 190500
TAFBFL
TAF
KBFL 190536Z 1906/2006 35004KT P6SM SCT200
     FM200000 31010KT P6SM SKC=



000
FTUS46 KHNX 182300
TAFMCE
TAF
KMCE 182320Z 1900/1924 31011KT P6SM SCT200
     FM190600 31006KT P6SM SCT200=



000
FTUS46 KHNX 182300
TAFFAT
TAF
KFAT 182320Z 1900/1924 31010KT P6SM FEW100 SCT200
     FM190600 31006KT P6SM SCT200=



000
FTUS46 KHNX 182300
TAFBFL
TAF
KBFL 182320Z 1900/1924 32010KT P6SM FEW100 BKN200
     FM190600 35004KT P6SM FEW100 BKN200=



000
FTUS46 KHNX 181700
TAFMCE
TAF
KMCE 181720Z 1818/1918 31011KT P6SM SKC
     FM190600 31006KT P6SM SCT200=



000
FTUS46 KHNX 181700
TAFBFL
TAF
KBFL 181720Z 1818/1918 32010KT P6SM FEW100 BKN200
     FM190500 35004KT P6SM FEW100 BKN200=



000
FTUS46 KHNX 181700
TAFFAT
TAF
KFAT 181720Z 1818/1918 31010KT P6SM SCT200
     FM190500 31006KT P6SM SCT200=



000
FTUS46 KHNX 181100
TAFFAT
TAF
KFAT 181120Z 1812/1912 31010KT P6SM BKN200=



000
FTUS46 KHNX 181100
TAFMCE
TAF
KMCE 181120Z 1812/1912 32010KT P6SM BKN200=



000
FTUS46 KHNX 181100
TAFBFL
TAF
KBFL 181120Z 1812/1912 VRB04KT P6SM BKN200
     FM182000 32010KT P6SM FEW100 BKN200
     FM190500 VRB04KT P6SM FEW100 BKN200=



000
FTUS46 KHNX 180500
TAFBFL
TAF
KBFL 180523Z 1806/1906 VRB04KT P6SM OVC200
     FM181900 35010KT P6SM SCT100 OVC200
     FM190000 32012KT P6SM BKN100=



000
FTUS46 KHNX 180500
TAFMCE
TAF
KMCE 180523Z 1806/1906 VRB03KT P6SM OVC200
     FM181600 32007KT P6SM SCT100 BKN150
     FM182200 32012KT P6SM BKN080
     FM190400 32005KT P6SM SCT080=



000
FTUS46 KHNX 180500
TAFFAT
TAF
KFAT 180523Z 1806/1906 31008KT P6SM SCT150 OVC200
     FM181000 VRB03KT P6SM BKN150
     FM181700 31007KT P6SM FEW100 BKN150
     FM182300 31012KT P6SM BKN080=



000
FTUS46 KHNX 172300
TAFMCE
TAF
KMCE 172320Z 1800/1824 VRB03KT P6SM BKN200
     FM180200 32008KT P6SM OVC200
     FM180900 VRB03KT P6SM OVC200
     FM181600 32007KT P6SM SCT100 BKN150
     FM182200 32012KT P6SM BKN080=



000
FTUS46 KHNX 172300
TAFFAT
TAF
KFAT 172320Z 1800/1824 00000KT P6SM FEW130 OVC200
     FM180500 31008KT P6SM OVC200
     FM180900 VRB03KT P6SM BKN150
     FM181700 31007KT P6SM FEW100 BKN150
     FM182300 31012KT P6SM BKN080=



000
FTUS46 KHNX 172300
TAFBFL
TAF
KBFL 172320Z 1800/1824 30009KT P6SM BKN200
     FM180400 VRB04KT P6SM OVC200
     FM181900 35010KT P6SM SCT100 OVC200=



000
FTUS46 KHNX 171700
TAFBFL
TAF
KBFL 171720Z 1718/1818 VRB05KT P6SM SKC
     FM180000 31009KT P6SM BKN200
     FM180400 VRB04KT P6SM SCT200
     FM181200 35010KT P6SM SCT150=



000
FTUS46 KHNX 171700
TAFMCE
TAF
KMCE 171720Z 1718/1818 04005KT P6SM BKN200
     FM180000 31010G18KT P6SM BKN200
     FM180300 VRB03KT P6SM SCT200
     FM181600 32007KT P6SM SCT100 BKN150=



000
FTUS46 KHNX 171700
TAFFAT
TAF
KFAT 171720Z 1718/1818 15006KT P6SM BKN200
     FM172300 31010G15KT P6SM BKN200
     FM180500 VRB04KT P6SM SCT200
     FM181700 31007KT P6SM FEW100 BKN150=



000
FTUS46 KHNX 171100 CCA
TAFBFL
TAF COR
KBFL 171142Z 1712/1812 VRB04KT P6SM FEW200
     FM180000 31009KT P6SM BKN200
     FM180400 VRB04KT P6SM SCT200=



000
FTUS46 KHNX 171100
TAFFAT
TAF
KFAT 171140Z 1712/1812 VRB03KT P6SM FEW200
     FM172300 31010G15KT P6SM BKN200
     FM180500 VRB04KT P6SM SCT200=



000
FTUS46 KHNX 171100
TAFBFL
TAF
KBFL 171140Z 1712/1812 13004KT P6SM SKC
     FM180000 31009KT P6SM BKN250=



000
FTUS46 KHNX 171100
TAFMCE
TAF
KMCE 171140Z 1712/1812 VRB03KT P6SM FEW200
     FM180000 31010G18KT P6SM BKN200
     FM180300 VRB03KT P6SM SCT200=



000
FTUS46 KHNX 170500
TAFMCE
TAF
KMCE 170540Z 1706/1806 34005KT P6SM SKC
     FM180000 31010G18KT P6SM BKN250=



000
FTUS46 KHNX 170500
TAFFAT
TAF
KFAT 170540Z 1706/1806 32004KT P6SM SKC
     FM180200 31010G15KT P6SM BKN250=



000
FTUS46 KHNX 170500
TAFBFL
TAF
KBFL 170540Z 1706/1806 VRB04KT P6SM SKC
     FM180000 31009KT P6SM BKN250=



000
FTUS46 KHNX 162300
TAFBFL
TAF
KBFL 162336Z 1700/1724 31011G19KT P6SM SKC
     FM170600 VRB04KT P6SM SKC=



000
FTUS46 KHNX 162300
TAFMCE
TAF
KMCE 162336Z 1700/1724 34014G21KT P6SM SKC
     FM170400 34005KT P6SM SKC=



000
FTUS46 KHNX 162300
TAFFAT
TAF
KFAT 162336Z 1700/1724 27007G15KT P6SM FEW100 FEW180 SCT250
     FM170500 32004KT P6SM SKC=



000
FTUS46 KHNX 161700
TAFFAT
TAF
KFAT 161732Z 1618/1718 VRB03KT P6SM SKC
     FM162200 31010KT P6SM SKC
      TEMPO 1623/1703 32013G21KT
     FM170500 32004KT P6SM SKC=



000
FTUS46 KHNX 161700
TAFMCE
TAF
KMCE 161732Z 1618/1718 31011KT P6SM SKC
      TEMPO 1621/1701 32014G21KT
     FM170400 34005KT P6SM SKC=



000
FTUS46 KHNX 161700
TAFBFL
TAF
KBFL 161732Z 1618/1718 30003KT P6SM SKC
     FM161900 30009KT P6SM SKC
      TEMPO 1621/1701 32012G19KT
     FM170300 35006KT P6SM SKC
     FM170600 VRB04KT P6SM SKC=



    US Dept of Commerce
    National Oceanic and Atmospheric Administration
    National Weather Service
    1325 East West Highway
    Silver Spring, MD 20910
    Page Author: NWS Internet Services Team
Disclaimer
Information Quality
Credits
Glossary
Privacy Policy
Freedom of Information Act (FOIA)
About Us
Career Opportunities